Ancramdale, New York
Current Conditions -  °F | °C
As of 6:53 PM on Friday 19 Dec 2014 (Local Time) from KPOU Reporting Station
Overcast Overcast  
Wind Chill: 31°   Ceiling: 3400
Heat Index: 31°   Visibility: 10mi
Dew Point: 20°   Wind: 3mph
Humidity: 64%   Direction: 350°N
Pressure: 30.14"   Gusts: NA
Location:  42.02°N, 73.59°W
Report Text: KPOU 192353Z AUTO 35003KT 10SM OVC034 M01/M07 A3014 RMK AO2 SLP205 T10061067 10033 21006 51025 TSNO
Loading
Personal Weather Stations






























Interactive Weather Map New forecast layout! Learn more

10-Day Weather Forecast

Advertisements
Track Severe Weather on mobile